Time;durP1;ratioP1;P1;durP2;ratioP2;P2;SDS_P1;SDS_P2;PMS_P1;PMS_P2;Temp;Humidity;BMP_temperature;BMP_pressure;BME280_temperature;BME280_humidity;BME280_pressure;Samples;Min_cycle;Max_cycle;Signal;HPM_P1;HPM_P2
2022/07/04 00:01:51;;;;;;;0.70;0.70;;;;;;;;;;5069564;28;20235;-63
2022/07/04 00:04:18;;;;;;;0.80;0.80;;;;;;;;;;5056058;28;20693;-64
2022/07/04 00:06:45;;;;;;;1.08;0.57;;;;;;;;;;5050100;28;20226;-63
2022/07/04 00:09:12;;;;;;;1.75;0.80;;;;;;;;;;5067017;28;20206;-63
2022/07/04 00:11:39;;;;;;;0.70;0.70;;;;;;;;;;5073378;28;20206;-64
2022/07/04 00:14:06;;;;;;;4.22;0.65;;;;;;;;;;5072583;28;20202;-63
2022/07/04 00:16:34;;;;;;;0.77;0.75;;;;;;;;;;5070148;28;20226;-63
2022/07/04 00:19:03;;;;;;;0.50;0.50;;;;;;;;;;5068987;28;20286;-63
2022/07/04 00:21:30;;;;;;;1.10;0.50;;;;;;;;;;5066130;28;20199;-63
2022/07/04 00:23:57;;;;;;;1.17;0.60;;;;;;;;;;5068227;28;20201;-63
2022/07/04 00:26:24;;;;;;;2.22;0.57;;;;;;;;;;5067695;28;20330;-64
2022/07/04 00:28:52;;;;;;;1.63;0.50;;;;;;;;;;5065662;28;20260;-63
2022/07/04 00:31:19;;;;;;;0.40;0.40;;;;;;;;;;5068831;28;20214;-63
2022/07/04 00:33:46;;;;;;;0.70;0.70;;;;;;;;;;5065813;28;20207;-63
2022/07/04 00:36:14;;;;;;;0.70;0.70;;;;;;;;;;5067983;28;20206;-63
2022/07/04 00:38:42;;;;;;;0.90;0.70;;;;;;;;;;5068315;28;20228;-63
2022/07/04 00:41:09;;;;;;;0.55;0.50;;;;;;;;;;5065044;28;20203;-64
2022/07/04 00:43:36;;;;;;;0.50;0.50;;;;;;;;;;5068090;28;20214;-63
2022/07/04 00:46:04;;;;;;;1.48;0.50;;;;;;;;;;5064777;28;20235;-63
2022/07/04 00:48:34;;;;;;;0.50;0.50;;;;;;;;;;5067394;28;20265;-63
2022/07/04 00:51:01;;;;;;;1.45;0.60;;;;;;;;;;5064257;28;20914;-64
2022/07/04 00:53:30;;;;;;;0.88;0.70;;;;;;;;;;5066631;28;20964;-63
2022/07/04 00:55:57;;;;;;;0.50;0.50;;;;;;;;;;5066596;28;20223;-64
2022/07/04 00:58:25;;;;;;;0.60;0.57;;;;;;;;;;5066954;28;20290;-63
2022/07/04 01:00:52;;;;;;;2.05;0.70;;;;;;;;;;5067103;28;20211;-63
2022/07/04 01:03:19;;;;;;;0.60;0.60;;;;;;;;;;5067233;28;20207;-63
2022/07/04 01:05:46;;;;;;;0.60;0.60;;;;;;;;;;5067000;28;20229;-63
2022/07/04 01:08:14;;;;;;;0.60;0.60;;;;;;;;;;5068004;28;20257;-63
2022/07/04 01:10:42;;;;;;;2.08;0.40;;;;;;;;;;5067987;28;20320;-63
2022/07/04 01:13:09;;;;;;;0.50;0.50;;;;;;;;;;5067799;28;20229;-63
2022/07/04 01:15:36;;;;;;;0.82;0.80;;;;;;;;;;5067472;28;20214;-63
2022/07/04 01:18:03;;;;;;;0.85;0.85;;;;;;;;;;5067577;28;20223;-63
2022/07/04 01:20:36;;;;;;;0.98;0.57;;;;;;;;;;5067212;28;20260;-63
2022/07/04 01:23:04;;;;;;;0.77;0.75;;;;;;;;;;5067634;28;20199;-64
2022/07/04 01:25:31;;;;;;;0.68;0.68;;;;;;;;;;5068273;28;20226;-63
2022/07/04 01:27:59;;;;;;;1.95;0.60;;;;;;;;;;5067691;28;20207;-63
2022/07/04 01:30:26;;;;;;;0.68;0.68;;;;;;;;;;5068044;28;20513;-63
2022/07/04 01:32:53;;;;;;;0.60;0.60;;;;;;;;;;5064863;28;20203;-63
2022/07/04 01:35:20;;;;;;;0.60;0.60;;;;;;;;;;5067800;28;20241;-63
2022/07/04 01:37:48;;;;;;;1.05;0.60;;;;;;;;;;5068096;28;20256;-63
2022/07/04 01:40:15;;;;;;;0.70;0.70;;;;;;;;;;5068104;28;20211;-63
2022/07/04 01:42:43;;;;;;;2.63;0.80;;;;;;;;;;5067711;28;20261;-63
2022/07/04 01:45:11;;;;;;;0.60;0.60;;;;;;;;;;5068050;28;20812;-63
2022/07/04 01:47:38;;;;;;;0.70;0.70;;;;;;;;;;5067211;28;20203;-63
2022/07/04 01:50:06;;;;;;;0.60;0.60;;;;;;;;;;5068067;28;20207;-63
2022/07/04 01:52:34;;;;;;;1.48;0.60;;;;;;;;;;5067887;28;20684;-63
2022/07/04 01:55:02;;;;;;;0.73;0.73;;;;;;;;;;5067848;28;20229;-63
2022/07/04 01:57:29;;;;;;;0.70;0.70;;;;;;;;;;5068121;28;20211;-63
2022/07/04 02:02:40;;;;;;;0.93;0.80;;;;;;;;;;5045295;28;20618;-63
2022/07/04 02:05:07;;;;;;;0.80;0.80;;;;;;;;;;5067708;28;20199;-63
2022/07/04 02:07:35;;;;;;;0.77;0.70;;;;;;;;;;5067404;28;20234;-63
2022/07/04 02:10:03;;;;;;;0.63;0.63;;;;;;;;;;5067512;28;20203;-63
2022/07/04 02:15:15;;;;;;;0.40;0.40;;;;;;;;;;5068017;28;20214;-63
2022/07/04 02:17:42;;;;;;;0.80;0.80;;;;;;;;;;5067529;28;20209;-63
2022/07/04 02:20:09;;;;;;;0.82;0.82;;;;;;;;;;5067803;28;20214;-63
2022/07/04 02:22:36;;;;;;;1.02;1.02;;;;;;;;;;5066772;28;20207;-63
2022/07/04 02:25:05;;;;;;;1.08;1.08;;;;;;;;;;5066608;28;20244;-64
2022/07/04 02:27:32;;;;;;;0.68;0.68;;;;;;;;;;5067433;28;20779;-63
2022/07/04 02:29:59;;;;;;;0.60;0.60;;;;;;;;;;5066554;28;20207;-63
2022/07/04 02:32:26;;;;;;;0.75;0.75;;;;;;;;;;5050600;28;20651;-64
2022/07/04 02:34:53;;;;;;;0.70;0.70;;;;;;;;;;5070128;28;20195;-64
2022/07/04 02:37:20;;;;;;;0.70;0.70;;;;;;;;;;5071309;28;20195;-63
2022/07/04 02:39:48;;;;;;;0.90;0.80;;;;;;;;;;5069509;28;22003;-63
2022/07/04 02:42:16;;;;;;;1.00;1.00;;;;;;;;;;5069253;28;20664;-64
2022/07/04 02:44:44;;;;;;;1.73;1.10;;;;;;;;;;5068406;28;20234;-64
2022/07/04 02:47:11;;;;;;;2.55;1.00;;;;;;;;;;5069094;28;20276;-63
2022/07/04 02:49:38;;;;;;;0.95;0.95;;;;;;;;;;5070659;28;20256;-64
2022/07/04 02:52:06;;;;;;;0.80;0.80;;;;;;;;;;5065293;28;20737;-64
2022/07/04 02:54:33;;;;;;;2.13;0.65;;;;;;;;;;5069491;28;20224;-63
2022/07/04 02:57:00;;;;;;;2.83;0.90;;;;;;;;;;5069832;28;20204;-61
2022/07/04 02:59:28;;;;;;;0.65;0.65;;;;;;;;;;5066725;28;20199;-61
2022/07/04 03:01:55;;;;;;;0.80;0.80;;;;;;;;;;5067918;28;20241;-63
2022/07/04 03:04:22;;;;;;;1.65;0.77;;;;;;;;;;5068294;28;20198;-62
2022/07/04 03:06:49;;;;;;;0.93;0.80;;;;;;;;;;5067425;28;20280;-63
2022/07/04 03:09:16;;;;;;;0.88;0.88;;;;;;;;;;5068584;28;20240;-62
2022/07/04 03:11:44;;;;;;;1.10;1.10;;;;;;;;;;5067588;28;20253;-62
2022/07/04 03:14:11;;;;;;;1.00;1.00;;;;;;;;;;5067894;28;20207;-63
2022/07/04 03:16:40;;;;;;;1.58;0.75;;;;;;;;;;5067549;28;20748;-63
2022/07/04 03:19:07;;;;;;;0.90;0.90;;;;;;;;;;5067967;28;20664;-63
2022/07/04 03:21:34;;;;;;;1.00;0.90;;;;;;;;;;5068022;28;20203;-63
2022/07/04 03:24:01;;;;;;;0.90;0.90;;;;;;;;;;5067540;28;20210;-63
2022/07/04 03:26:30;;;;;;;1.98;0.82;;;;;;;;;;5068044;28;20227;-63
2022/07/04 03:28:57;;;;;;;1.85;0.80;;;;;;;;;;5068012;28;20195;-63
2022/07/04 03:31:25;;;;;;;1.17;1.08;;;;;;;;;;5068898;28;20211;-62
2022/07/04 03:33:53;;;;;;;0.88;0.88;;;;;;;;;;5068192;28;20202;-62
2022/07/04 03:36:20;;;;;;;1.27;0.98;;;;;;;;;;5068261;28;20203;-64
2022/07/04 03:38:48;;;;;;;1.35;0.80;;;;;;;;;;5068266;28;20221;-64
2022/07/04 03:41:15;;;;;;;0.90;0.90;;;;;;;;;;5069001;28;20869;-63
2022/07/04 03:43:42;;;;;;;0.95;0.95;;;;;;;;;;5068248;28;20673;-63
2022/07/04 03:46:09;;;;;;;0.90;0.90;;;;;;;;;;5068455;28;20239;-63
2022/07/04 03:48:36;;;;;;;0.95;0.95;;;;;;;;;;5067972;28;20203;-63
2022/07/04 03:51:05;;;;;;;1.10;0.95;;;;;;;;;;5068496;28;20305;-63
2022/07/04 03:53:32;;;;;;;0.90;0.90;;;;;;;;;;5068307;28;20211;-63
2022/07/04 03:55:59;;;;;;;1.83;0.82;;;;;;;;;;5067907;28;20223;-63
2022/07/04 03:58:26;;;;;;;0.95;0.90;;;;;;;;;;5067519;28;20249;-62
2022/07/04 04:00:53;;;;;;;1.00;1.00;;;;;;;;;;5067146;28;20207;-63
2022/07/04 04:06:06;;;;;;;0.85;0.85;;;;;;;;;;5066680;28;20672;-62
2022/07/04 04:08:33;;;;;;;0.82;0.82;;;;;;;;;;5068426;28;20202;-63
2022/07/04 04:11:00;;;;;;;0.98;0.90;;;;;;;;;;5067887;28;20199;-62
2022/07/04 04:13:27;;;;;;;2.90;0.90;;;;;;;;;;5067854;28;20199;-62
2022/07/04 04:15:54;;;;;;;1.02;0.88;;;;;;;;;;5067006;28;20677;-62
2022/07/04 04:18:21;;;;;;;0.90;0.90;;;;;;;;;;5067938;28;20214;-62
2022/07/04 04:20:48;;;;;;;0.85;0.85;;;;;;;;;;5068385;28;20730;-62
2022/07/04 04:23:16;;;;;;;0.90;0.90;;;;;;;;;;5067424;28;20211;-62
2022/07/04 04:25:43;;;;;;;0.90;0.90;;;;;;;;;;5067978;28;20253;-62
2022/07/04 04:28:10;;;;;;;1.00;1.00;;;;;;;;;;5067970;28;20636;-64
2022/07/04 04:30:38;;;;;;;1.00;0.90;;;;;;;;;;5067559;28;20695;-64
2022/07/04 04:33:05;;;;;;;0.90;0.90;;;;;;;;;;5067214;28;20233;-64
2022/07/04 04:35:34;;;;;;;2.92;1.10;;;;;;;;;;5062757;28;20199;-63
2022/07/04 04:38:01;;;;;;;0.90;0.90;;;;;;;;;;5066656;28;20191;-63
2022/07/04 04:40:29;;;;;;;0.90;0.90;;;;;;;;;;5067723;28;20676;-63
2022/07/04 04:42:56;;;;;;;1.60;1.00;;;;;;;;;;5067771;28;20210;-63
2022/07/04 04:45:24;;;;;;;1.40;1.00;;;;;;;;;;5067139;28;20239;-64
2022/07/04 04:47:53;;;;;;;3.13;1.00;;;;;;;;;;5063994;28;20226;-64
2022/07/04 04:50:20;;;;;;;1.60;0.95;;;;;;;;;;5067337;28;20586;-64
2022/07/04 04:52:47;;;;;;;1.10;1.10;;;;;;;;;;5063965;28;20207;-63
2022/07/04 04:55:14;;;;;;;1.00;1.00;;;;;;;;;;5066105;28;20223;-63
2022/07/04 04:57:42;;;;;;;1.02;0.77;;;;;;;;;;5066928;28;20207;-63
2022/07/04 05:00:10;;;;;;;0.80;0.80;;;;;;;;;;5066779;28;20720;-64
2022/07/04 05:02:37;;;;;;;2.75;1.00;;;;;;;;;;5067478;28;20664;-64
2022/07/04 05:05:04;;;;;;;1.35;1.20;;;;;;;;;;5066780;28;20199;-62
2022/07/04 05:07:31;;;;;;;0.95;0.95;;;;;;;;;;5066525;28;20719;-62
2022/07/04 05:09:59;;;;;;;0.90;0.90;;;;;;;;;;5065838;28;20203;-63
2022/07/04 05:12:26;;;;;;;1.10;1.10;;;;;;;;;;5061686;28;20315;-62
2022/07/04 05:14:55;;;;;;;0.70;0.70;;;;;;;;;;5066897;28;20834;-63
2022/07/04 05:17:22;;;;;;;1.55;0.93;;;;;;;;;;5066405;28;20652;-63
2022/07/04 05:19:50;;;;;;;0.82;0.82;;;;;;;;;;5066836;28;20211;-63
2022/07/04 05:22:17;;;;;;;1.40;1.00;;;;;;;;;;5067311;28;20210;-63
2022/07/04 05:24:44;;;;;;;0.98;0.98;;;;;;;;;;5066465;28;20199;-63
2022/07/04 05:27:12;;;;;;;0.82;0.82;;;;;;;;;;5066207;28;20227;-63
2022/07/04 05:29:39;;;;;;;1.05;1.05;;;;;;;;;;5067496;28;20245;-60
2022/07/04 05:32:08;;;;;;;1.50;1.50;;;;;;;;;;5065926;28;20248;-62
2022/07/04 05:34:35;;;;;;;1.17;1.17;;;;;;;;;;5069835;28;20210;-65
2022/07/04 05:37:02;;;;;;;1.10;1.10;;;;;;;;;;5067874;28;20199;-63
2022/07/04 05:39:29;;;;;;;2.40;1.20;;;;;;;;;;5064333;28;20196;-63
2022/07/04 05:41:56;;;;;;;2.25;1.00;;;;;;;;;;5062839;28;20210;-63
2022/07/04 05:44:23;;;;;;;0.80;0.77;;;;;;;;;;5067204;28;20227;-64
2022/07/04 05:46:50;;;;;;;0.90;0.90;;;;;;;;;;5068083;28;20321;-63
2022/07/04 05:49:19;;;;;;;1.17;1.08;;;;;;;;;;5070532;28;20203;-63
2022/07/04 05:51:46;;;;;;;3.65;1.50;;;;;;;;;;5067568;28;20206;-64
2022/07/04 05:54:13;;;;;;;1.30;1.10;;;;;;;;;;5066212;28;20235;-64
2022/07/04 05:56:41;;;;;;;1.05;0.95;;;;;;;;;;5067388;28;20758;-64
2022/07/04 05:59:09;;;;;;;0.77;0.77;;;;;;;;;;5067334;28;20199;-64
2022/07/04 06:01:36;;;;;;;2.83;1.13;;;;;;;;;;5064918;28;20203;-65
2022/07/04 06:04:03;;;;;;;0.85;0.80;;;;;;;;;;5067237;28;20610;-65
2022/07/04 06:06:32;;;;;;;1.80;1.13;;;;;;;;;;5068988;28;20202;-65
2022/07/04 06:08:59;;;;;;;0.68;0.68;;;;;;;;;;5071852;28;20577;-63
2022/07/04 06:11:26;;;;;;;0.80;0.80;;;;;;;;;;5071262;28;20212;-62
2022/07/04 06:13:54;;;;;;;1.63;0.70;;;;;;;;;;5071288;28;20742;-64
2022/07/04 06:16:21;;;;;;;1.63;0.80;;;;;;;;;;5071680;28;20295;-64
2022/07/04 06:18:48;;;;;;;0.77;0.77;;;;;;;;;;5071811;28;20714;-64
2022/07/04 06:21:15;;;;;;;0.75;0.70;;;;;;;;;;5071474;28;20624;-63
2022/07/04 06:23:43;;;;;;;0.43;0.43;;;;;;;;;;5071457;28;20203;-64
2022/07/04 06:26:11;;;;;;;1.02;0.60;;;;;;;;;;5071250;28;20215;-63
2022/07/04 06:28:38;;;;;;;1.35;0.70;;;;;;;;;;5070945;28;20280;-63
2022/07/04 06:31:05;;;;;;;0.60;0.60;;;;;;;;;;5070920;28;20348;-64
2022/07/04 06:33:32;;;;;;;1.30;0.80;;;;;;;;;;5071506;28;20272;-63
2022/07/04 06:35:58;;;;;;;0.73;0.70;;;;;;;;;;5071491;28;20739;-64
2022/07/04 06:38:26;;;;;;;0.65;0.65;;;;;;;;;;5071204;28;20247;-64
2022/07/04 06:40:56;;;;;;;0.52;0.50;;;;;;;;;;5071197;28;20222;-64
2022/07/04 06:43:23;;;;;;;0.70;0.70;;;;;;;;;;5070688;28;20403;-63
2022/07/04 06:45:50;;;;;;;0.70;0.70;;;;;;;;;;5070921;28;20235;-64
2022/07/04 06:48:18;;;;;;;3.00;0.70;;;;;;;;;;5070995;28;20787;-65
2022/07/04 06:50:46;;;;;;;0.63;0.57;;;;;;;;;;5070924;28;20226;-64
2022/07/04 06:53:13;;;;;;;0.73;0.65;;;;;;;;;;5070717;28;20279;-64
2022/07/04 06:55:41;;;;;;;0.60;0.60;;;;;;;;;;5070709;28;20242;-64
2022/07/04 06:58:10;;;;;;;0.80;0.75;;;;;;;;;;5070954;28;20214;-64
2022/07/04 07:00:38;;;;;;;0.70;0.70;;;;;;;;;;5070544;28;20675;-64
2022/07/04 07:03:05;;;;;;;0.70;0.70;;;;;;;;;;5070365;28;20220;-65
2022/07/04 07:05:32;;;;;;;0.65;0.60;;;;;;;;;;5070064;28;20725;-64
2022/07/04 07:07:59;;;;;;;2.08;0.60;;;;;;;;;;5070029;28;20233;-65
2022/07/04 07:10:27;;;;;;;1.38;0.60;;;;;;;;;;5069806;28;20211;-65
2022/07/04 07:12:54;;;;;;;1.23;0.65;;;;;;;;;;5069949;28;20607;-65
2022/07/04 07:15:22;;;;;;;1.02;0.73;;;;;;;;;;5069767;28;20273;-65
2022/07/04 07:17:49;;;;;;;0.50;0.50;;;;;;;;;;5069430;28;20207;-65
2022/07/04 07:20:16;;;;;;;0.50;0.50;;;;;;;;;;5070085;28;20272;-66
2022/07/04 07:22:43;;;;;;;0.60;0.60;;;;;;;;;;5069429;28;20203;-65
2022/07/04 07:25:11;;;;;;;1.67;0.30;;;;;;;;;;5069463;28;20646;-63
2022/07/04 07:27:38;;;;;;;0.50;0.50;;;;;;;;;;5069578;28;20230;-63
2022/07/04 07:30:06;;;;;;;0.43;0.43;;;;;;;;;;5069614;28;20207;-63
2022/07/04 07:32:34;;;;;;;1.55;0.70;;;;;;;;;;5069525;28;20360;-63
2022/07/04 07:35:01;;;;;;;0.60;0.60;;;;;;;;;;5069326;28;20207;-63
2022/07/04 07:37:28;;;;;;;0.52;0.50;;;;;;;;;;5069532;28;20203;-61
2022/07/04 07:39:56;;;;;;;0.50;0.50;;;;;;;;;;5069761;28;20680;-60
2022/07/04 07:42:25;;;;;;;0.70;0.70;;;;;;;;;;5068957;28;20202;-61
2022/07/04 07:44:52;;;;;;;2.30;0.75;;;;;;;;;;5081008;28;20238;-61
2022/07/04 07:47:19;;;;;;;2.38;0.68;;;;;;;;;;5081365;28;20203;-61
2022/07/04 07:49:48;;;;;;;0.70;0.60;;;;;;;;;;5069842;28;20728;-61
2022/07/04 07:52:15;;;;;;;0.52;0.40;;;;;;;;;;5069486;28;20206;-60
2022/07/04 07:54:42;;;;;;;0.40;0.40;;;;;;;;;;5068615;28;20322;-61
2022/07/04 07:57:09;;;;;;;0.50;0.50;;;;;;;;;;5069422;28;20768;-63
2022/07/04 07:59:36;;;;;;;0.32;0.32;;;;;;;;;;5069148;28;20215;-63
2022/07/04 08:02:03;;;;;;;0.50;0.50;;;;;;;;;;5069482;28;20296;-63
2022/07/04 08:04:37;;;;;;;0.93;0.60;;;;;;;;;;5069236;28;20256;-63
2022/07/04 08:07:05;;;;;;;1.00;0.70;;;;;;;;;;5069586;28;20741;-63
2022/07/04 08:09:33;;;;;;;1.00;0.63;;;;;;;;;;5069028;28;20629;-63
2022/07/04 08:12:00;;;;;;;2.55;0.50;;;;;;;;;;5066812;28;20677;-63
2022/07/04 08:14:27;;;;;;;0.60;0.50;;;;;;;;;;5068922;28;20215;-64
2022/07/04 08:16:54;;;;;;;0.55;0.55;;;;;;;;;;5069176;28;20371;-63
2022/07/04 08:19:21;;;;;;;0.50;0.50;;;;;;;;;;5068868;28;20214;-63
2022/07/04 08:21:48;;;;;;;1.13;0.50;;;;;;;;;;5068762;28;20669;-64
2022/07/04 08:24:16;;;;;;;2.35;0.65;;;;;;;;;;5068808;28;20687;-64
2022/07/04 08:26:45;;;;;;;0.55;0.55;;;;;;;;;;5069062;28;20218;-66
2022/07/04 08:29:12;;;;;;;0.50;0.50;;;;;;;;;;5067769;28;20261;-63
2022/07/04 08:31:39;;;;;;;3.10;0.57;;;;;;;;;;5068043;28;20207;-63
2022/07/04 08:34:06;;;;;;;0.40;0.40;;;;;;;;;;5082611;28;20232;-64
2022/07/04 08:36:33;;;;;;;3.00;0.60;;;;;;;;;;5089228;28;20213;-64
2022/07/04 08:39:00;;;;;;;1.15;0.50;;;;;;;;;;5089035;28;20209;-64
2022/07/04 08:41:30;;;;;;;2.75;0.50;;;;;;;;;;5086566;28;20691;-63
2022/07/04 08:43:57;;;;;;;0.75;0.60;;;;;;;;;;5079455;28;20211;-63
2022/07/04 08:46:27;;;;;;;1.02;0.98;;;;;;;;;;5027083;28;20309;-63
2022/07/04 08:48:56;;;;;;;1.25;0.70;;;;;;;;;;5028475;28;20255;-59
2022/07/04 08:51:27;;;;;;;1.20;0.60;;;;;;;;;;5028711;28;20208;-61
2022/07/04 08:53:57;;;;;;;0.63;0.63;;;;;;;;;;5028527;28;20217;-61
2022/07/04 08:59:11;;;;;;;1.33;0.50;;;;;;;;;;5027699;28;20210;-61
2022/07/04 09:01:40;;;;;;;1.33;0.50;;;;;;;;;;5026942;28;20228;-62
2022/07/04 09:04:08;;;;;;;3.17;0.45;;;;;;;;;;5026775;28;20299;-65
2022/07/04 09:06:35;;;;;;;2.25;0.50;;;;;;;;;;5038802;28;20223;-65
2022/07/04 09:09:02;;;;;;;0.60;0.40;;;;;;;;;;5018074;28;20236;-65
2022/07/04 09:11:29;;;;;;;0.95;0.50;;;;;;;;;;5030110;28;20212;-65
2022/07/04 09:13:57;;;;;;;0.73;0.50;;;;;;;;;;5028489;28;20219;-65
2022/07/04 09:16:26;;;;;;;0.75;0.63;;;;;;;;;;5028106;28;20212;-66
2022/07/04 09:18:55;;;;;;;0.70;0.50;;;;;;;;;;5027954;28;20250;-66
2022/07/04 09:21:22;;;;;;;2.13;0.50;;;;;;;;;;5027089;28;20319;-66
2022/07/04 09:23:50;;;;;;;0.95;0.50;;;;;;;;;;5027832;28;20208;-66
2022/07/04 09:26:18;;;;;;;0.50;0.50;;;;;;;;;;5028114;28;20263;-66
2022/07/04 09:28:46;;;;;;;0.90;0.50;;;;;;;;;;5028221;28;20227;-65
2022/07/04 09:31:20;;;;;;;0.50;0.50;;;;;;;;;;5027589;28;20212;-65
2022/07/04 09:33:51;;;;;;;0.60;0.60;;;;;;;;;;5028167;28;20208;-65
2022/07/04 09:36:19;;;;;;;1.17;0.55;;;;;;;;;;5030992;28;20204;-65
2022/07/04 09:38:46;;;;;;;0.50;0.50;;;;;;;;;;5031794;28;20196;-68
2022/07/04 09:41:26;;;;;;;0.95;0.43;;;;;;;;;;5029076;28;20219;-66
2022/07/04 09:44:00;;;;;;;0.63;0.50;;;;;;;;;;5027934;28;20232;-66
2022/07/04 09:46:27;;;;;;;0.55;0.55;;;;;;;;;;5027220;28;20304;-66
2022/07/04 09:48:55;;;;;;;0.40;0.40;;;;;;;;;;5027063;28;20335;-65
2022/07/04 09:51:39;;;;;;;0.77;0.50;;;;;;;;;;5027867;28;20209;-63
2022/07/04 09:54:16;;;;;;;0.77;0.52;;;;;;;;;;5027608;28;20301;-66
2022/07/04 09:56:43;;;;;;;0.40;0.40;;;;;;;;;;5028010;28;20207;-69
2022/07/04 09:59:10;;;;;;;0.70;0.70;;;;;;;;;;5026751;28;20226;-67
2022/07/04 10:01:39;;;;;;;0.40;0.40;;;;;;;;;;5027081;28;20662;-67
2022/07/04 10:04:08;;;;;;;1.08;0.40;;;;;;;;;;5026681;28;20295;-66
2022/07/04 10:06:35;;;;;;;2.05;0.60;;;;;;;;;;5044741;28;20207;-67
2022/07/04 10:09:09;;;;;;;0.57;0.50;;;;;;;;;;5028215;28;20887;-65
2022/07/04 10:11:38;;;;;;;0.38;0.38;;;;;;;;;;5027749;28;20644;-66
2022/07/04 10:14:05;;;;;;;0.35;0.35;;;;;;;;;;5027067;28;20235;-62
2022/07/04 10:16:32;;;;;;;1.65;0.47;;;;;;;;;;5026942;28;20631;-63
2022/07/04 10:18:59;;;;;;;1.42;0.50;;;;;;;;;;5027433;28;20616;-63
2022/07/04 10:21:28;;;;;;;1.55;0.40;;;;;;;;;;5027313;28;20200;-64
2022/07/04 10:23:55;;;;;;;0.35;0.35;;;;;;;;;;5027114;28;20756;-67
2022/07/04 10:26:23;;;;;;;2.05;0.43;;;;;;;;;;5026898;28;20208;-67
2022/07/04 10:28:51;;;;;;;2.30;1.45;;;;;;;;;;5026861;28;20239;-66
2022/07/04 10:31:19;;;;;;;0.57;0.47;;;;;;;;;;5027007;28;20212;-67
2022/07/04 10:33:46;;;;;;;0.47;0.47;;;;;;;;;;5029451;28;20196;-67
2022/07/04 10:36:17;;;;;;;0.47;0.40;;;;;;;;;;5025390;28;20713;-63
2022/07/04 10:38:52;;;;;;;0.30;0.30;;;;;;;;;;5027430;28;20201;-63
2022/07/04 10:41:21;;;;;;;0.75;0.40;;;;;;;;;;5027255;28;20216;-64
2022/07/04 10:44:01;;;;;;;0.40;0.40;;;;;;;;;;5027307;28;20211;-63
2022/07/04 10:46:30;;;;;;;1.40;0.40;;;;;;;;;;5047183;28;20210;-64
2022/07/04 10:48:58;;;;;;;1.50;0.60;;;;;;;;;;5046901;28;20285;-63
2022/07/04 10:51:35;;;;;;;0.88;0.40;;;;;;;;;;5046890;28;20211;-63
2022/07/04 10:54:05;;;;;;;0.43;0.43;;;;;;;;;;5050270;28;20705;-63
2022/07/04 10:56:39;;;;;;;1.02;0.40;;;;;;;;;;5050899;28;20677;-63
2022/07/04 10:59:09;;;;;;;0.57;0.32;;;;;;;;;;5050567;28;20211;-64
2022/07/04 11:01:37;;;;;;;0.45;0.45;;;;;;;;;;5037110;28;20778;-64
2022/07/04 11:04:04;;;;;;;0.50;0.50;;;;;;;;;;5046245;28;20635;-64
2022/07/04 11:06:52;;;;;;;0.50;0.50;;;;;;;;;;5050037;28;20212;-63
2022/07/04 11:09:21;;;;;;;1.65;0.38;;;;;;;;;;5049072;28;20234;-63
2022/07/04 11:11:49;;;;;;;0.47;0.40;;;;;;;;;;5049846;28;20242;-63
2022/07/04 11:14:36;;;;;;;0.60;0.60;;;;;;;;;;5049831;28;20903;-63
2022/07/04 11:17:03;;;;;;;0.85;0.35;;;;;;;;;;5049729;28;20742;-64
2022/07/04 11:19:30;;;;;;;0.40;0.40;;;;;;;;;;5049621;28;20207;-64
2022/07/04 11:21:58;;;;;;;0.63;0.40;;;;;;;;;;5049391;28;20677;-63
2022/07/04 11:24:26;;;;;;;0.38;0.38;;;;;;;;;;5049082;28;20588;-63
2022/07/04 11:26:53;;;;;;;0.80;0.40;;;;;;;;;;5049095;28;20222;-64
2022/07/04 11:29:20;;;;;;;0.43;0.43;;;;;;;;;;5049187;28;20223;-64
2022/07/04 11:31:48;;;;;;;0.20;0.20;;;;;;;;;;5034690;28;20213;-63
2022/07/04 11:34:16;;;;;;;0.40;0.40;;;;;;;;;;5045632;28;20199;-64
2022/07/04 11:36:44;;;;;;;0.75;0.40;;;;;;;;;;5049560;28;20211;-64
2022/07/04 11:39:12;;;;;;;0.63;0.63;;;;;;;;;;5049780;28;20208;-63
2022/07/04 11:47:15;;;;;;;0.65;0.20;;;;;;;;;;5069813;28;20202;-63
2022/07/04 11:49:49;;;;;;;0.40;0.40;;;;;;;;;;5069693;28;20234;-63
2022/07/04 11:52:16;;;;;;;0.30;0.30;;;;;;;;;;5069856;28;20210;-64
2022/07/04 11:54:44;;;;;;;0.25;0.25;;;;;;;;;;5069369;28;20291;-64
2022/07/04 11:57:14;;;;;;;0.30;0.30;;;;;;;;;;5069486;28;20214;-64
2022/07/04 11:59:41;;;;;;;0.30;0.30;;;;;;;;;;5069725;28;20195;-64
2022/07/04 12:02:12;;;;;;;0.30;0.30;;;;;;;;;;5069284;28;20215;-63
2022/07/04 12:04:41;;;;;;;0.20;0.20;;;;;;;;;;5069314;28;20459;-64
2022/07/04 12:07:10;;;;;;;0.30;0.30;;;;;;;;;;5069233;28;20545;-64
2022/07/04 12:09:37;;;;;;;0.30;0.30;;;;;;;;;;5068617;28;20227;-64
2022/07/04 12:12:05;;;;;;;0.63;0.32;;;;;;;;;;5069206;28;20218;-64
2022/07/04 12:14:33;;;;;;;0.25;0.22;;;;;;;;;;5069292;28;20210;-64
2022/07/04 12:17:10;;;;;;;0.25;0.25;;;;;;;;;;5068840;28;20256;-63
2022/07/04 12:19:37;;;;;;;0.43;0.20;;;;;;;;;;5069164;28;20322;-64
2022/07/04 12:22:04;;;;;;;0.40;0.40;;;;;;;;;;5069027;28;20214;-64
2022/07/04 12:24:41;;;;;;;0.50;0.30;;;;;;;;;;5068544;28;20955;-63
2022/07/04 12:27:08;;;;;;;0.50;0.25;;;;;;;;;;5068714;28;20646;-64
2022/07/04 12:29:36;;;;;;;1.08;0.38;;;;;;;;;;5068751;28;20235;-64
2022/07/04 12:32:06;;;;;;;0.20;0.20;;;;;;;;;;5068978;28;20218;-64
2022/07/04 12:34:33;;;;;;;0.30;0.30;;;;;;;;;;5068923;28;20203;-63
2022/07/04 12:37:00;;;;;;;0.30;0.30;;;;;;;;;;5068871;28;20211;-63
2022/07/04 12:39:30;;;;;;;0.20;0.20;;;;;;;;;;5068343;28;20668;-63
2022/07/04 12:42:07;;;;;;;0.20;0.20;;;;;;;;;;5067830;28;20211;-64
2022/07/04 12:44:36;;;;;;;0.13;0.13;;;;;;;;;;5068030;28;20242;-64
2022/07/04 12:47:04;;;;;;;0.88;0.30;;;;;;;;;;5068977;28;20210;-64
2022/07/04 12:49:31;;;;;;;1.08;0.20;;;;;;;;;;5068678;28;20699;-64
2022/07/04 12:52:08;;;;;;;0.32;0.30;;;;;;;;;;5068270;28;20202;-64
2022/07/04 12:54:35;;;;;;;0.20;0.20;;;;;;;;;;5068479;28;20238;-64
2022/07/04 12:57:11;;;;;;;0.25;0.25;;;;;;;;;;5068606;28;20219;-64
2022/07/04 12:59:39;;;;;;;0.30;0.30;;;;;;;;;;5067808;28;20305;-64
2022/07/04 13:02:07;;;;;;;0.60;0.60;;;;;;;;;;5068089;28;20676;-64
2022/07/04 13:04:34;;;;;;;0.30;0.30;;;;;;;;;;5068279;28;20257;-63
2022/07/04 13:07:02;;;;;;;0.47;0.30;;;;;;;;;;5068366;28;20211;-63
2022/07/04 13:09:29;;;;;;;0.30;0.30;;;;;;;;;;5067399;28;20237;-63
2022/07/04 13:14:42;;;;;;;0.35;0.35;;;;;;;;;;5067261;28;20214;-62
2022/07/04 13:17:09;;;;;;;0.28;0.20;;;;;;;;;;5067833;28;20419;-63
2022/07/04 13:19:36;;;;;;;0.30;0.30;;;;;;;;;;5076153;28;20206;-63
2022/07/04 13:22:03;;;;;;;0.30;0.30;;;;;;;;;;5072596;28;20218;-63
2022/07/04 13:24:30;;;;;;;0.30;0.30;;;;;;;;;;5070681;28;20207;-63
2022/07/04 13:26:57;;;;;;;0.30;0.30;;;;;;;;;;5088299;28;20210;-64
2022/07/04 13:29:24;;;;;;;0.38;0.35;;;;;;;;;;5068480;28;20214;-63
2022/07/04 13:31:53;;;;;;;0.43;0.30;;;;;;;;;;5066454;28;20211;-66
2022/07/04 13:34:20;;;;;;;0.40;0.40;;;;;;;;;;5060303;28;20237;-66
2022/07/04 13:36:47;;;;;;;0.20;0.20;;;;;;;;;;5069831;28;20260;-66
2022/07/04 13:39:16;;;;;;;0.20;0.20;;;;;;;;;;5066800;28;20314;-67
2022/07/04 13:41:43;;;;;;;0.28;0.28;;;;;;;;;;5066241;28;20310;-66
2022/07/04 13:44:15;;;;;;;0.30;0.30;;;;;;;;;;5073913;28;20210;-67
2022/07/04 13:46:42;;;;;;;0.30;0.30;;;;;;;;;;5086469;28;20313;-66
2022/07/04 13:49:12;;;;;;;2.75;0.52;;;;;;;;;;5073665;28;20529;-66
2022/07/04 13:51:40;;;;;;;0.30;0.30;;;;;;;;;;5064238;28;20298;-66
2022/07/04 13:54:07;;;;;;;1.27;0.40;;;;;;;;;;5065303;28;20771;-66
2022/07/04 13:56:35;;;;;;;0.65;0.30;;;;;;;;;;5066004;28;20215;-66
2022/07/04 13:59:03;;;;;;;0.30;0.30;;;;;;;;;;5066376;28;20234;-67
2022/07/04 14:01:30;;;;;;;0.28;0.28;;;;;;;;;;5065833;28;20258;-65
2022/07/04 14:03:57;;;;;;;0.30;0.30;;;;;;;;;;5064619;28;20676;-62
2022/07/04 14:06:25;;;;;;;0.20;0.20;;;;;;;;;;5065718;28;20199;-63
2022/07/04 14:08:52;;;;;;;2.55;0.43;;;;;;;;;;5065367;28;20277;-63
2022/07/04 14:11:19;;;;;;;0.47;0.20;;;;;;;;;;5065312;28;20242;-63
2022/07/04 14:13:46;;;;;;;0.40;0.40;;;;;;;;;;5069018;28;20203;-64
2022/07/04 14:16:13;;;;;;;0.95;0.40;;;;;;;;;;5065755;28;20601;-64
2022/07/04 14:18:40;;;;;;;1.25;0.30;;;;;;;;;;5065917;28;20603;-64
2022/07/04 14:21:07;;;;;;;0.90;0.40;;;;;;;;;;5065523;28;20230;-64
2022/07/04 14:23:42;;;;;;;0.20;0.20;;;;;;;;;;5065456;28;20551;-64
2022/07/04 14:26:09;;;;;;;0.30;0.30;;;;;;;;;;5066218;28;20199;-64
2022/07/04 14:28:36;;;;;;;0.63;0.32;;;;;;;;;;5086442;28;20230;-63
2022/07/04 14:31:03;;;;;;;0.30;0.30;;;;;;;;;;5075575;28;20234;-63
2022/07/04 14:33:30;;;;;;;0.30;0.30;;;;;;;;;;5067789;28;20256;-62
2022/07/04 14:35:57;;;;;;;0.65;0.35;;;;;;;;;;5047607;28;20669;-62
2022/07/04 14:38:25;;;;;;;0.30;0.30;;;;;;;;;;5049292;28;20215;-63
2022/07/04 14:40:53;;;;;;;0.47;0.47;;;;;;;;;;5068251;28;20211;-63
2022/07/04 14:43:20;;;;;;;0.30;0.30;;;;;;;;;;5069222;28;20284;-64
2022/07/04 14:45:47;;;;;;;0.55;0.40;;;;;;;;;;5069131;28;20743;-63
2022/07/04 14:48:14;;;;;;;0.52;0.30;;;;;;;;;;5069291;28;20751;-63
2022/07/04 14:50:41;;;;;;;0.35;0.35;;;;;;;;;;5069049;28;20580;-63
2022/07/04 14:53:09;;;;;;;0.30;0.30;;;;;;;;;;5068709;28;20217;-64
2022/07/04 14:55:39;;;;;;;1.30;0.30;;;;;;;;;;5068463;28;20231;-64
2022/07/04 14:58:07;;;;;;;0.55;0.38;;;;;;;;;;5068453;28;20425;-62
2022/07/04 15:00:34;;;;;;;0.38;0.38;;;;;;;;;;5068469;28;20203;-62
2022/07/04 15:03:01;;;;;;;1.00;0.38;;;;;;;;;;5066766;28;20211;-62
2022/07/04 15:05:28;;;;;;;1.23;0.32;;;;;;;;;;5068242;28;20211;-63
2022/07/04 15:07:56;;;;;;;0.43;0.20;;;;;;;;;;5068185;28;20226;-64